TAM3189 SBBE-SBEG
Flight info
| Callsign | TAM3189 |
|---|---|
| Flight time | 1h 45m |
| Altitude | 34000 |
| Route | ILMAN UZ81 KULAB |
| Aircraft | A320/M-SDE3FGHIRWY/LB1 |
Departure
| Time | 2026-05-04 00:14 |
|---|---|
| Airport | Val de Cans/Júlio Cezar Ribeiro International Airport (SBBE) |
Arrival
| Time | 2026-05-04 02:00 |
|---|---|
| Airport | Eduardo Gomes International Airport (SBEG) |
| Time | Latitude | Longitude | Altitude | Speed | Heading |
|---|---|---|---|---|---|
| 2026-05-03 23:50 | -1.38960 | -48.47887 | 43 ft | 0 kts | 275° |
| 2026-05-04 00:06 | -1.38960 | -48.47883 | 43 ft | 3 kts | 275° |
| 2026-05-04 00:06 | -1.38964 | -48.47856 | 41 ft | 4 kts | 285° |
| 2026-05-04 00:06 | -1.38974 | -48.47832 | 38 ft | 4 kts | 309° |
| 2026-05-04 00:07 | -1.38992 | -48.47820 | 43 ft | 2 kts | 4° |
| 2026-05-04 00:07 | -1.38998 | -48.47820 | 43 ft | 0 kts | 5° |
| 2026-05-04 00:09 | -1.38997 | -48.47820 | 43 ft | 1 kts | 5° |
| 2026-05-04 00:09 | -1.38972 | -48.47818 | 43 ft | 4 kts | 4° |
| 2026-05-04 00:09 | -1.38949 | -48.47817 | 43 ft | 3 kts | 4° |
| 2026-05-04 00:10 | -1.38881 | -48.47811 | 43 ft | 15 kts | 5° |
| 2026-05-04 00:10 | -1.38774 | -48.47799 | 43 ft | 16 kts | 9° |
| 2026-05-04 00:10 | -1.38688 | -48.47816 | 42 ft | 12 kts | 304° |
| 2026-05-04 00:10 | -1.38676 | -48.47888 | 43 ft | 10 kts | 271° |
| 2026-05-04 00:11 | -1.38676 | -48.47951 | 43 ft | 8 kts | 270° |
| 2026-05-04 00:11 | -1.38676 | -48.48018 | 44 ft | 14 kts | 269° |
| 2026-05-04 00:11 | -1.38677 | -48.48117 | 44 ft | 13 kts | 270° |
| 2026-05-04 00:11 | -1.38677 | -48.48204 | 44 ft | 12 kts | 266° |
| 2026-05-04 00:12 | -1.38720 | -48.48266 | 44 ft | 10 kts | 225° |
| 2026-05-04 00:12 | -1.38767 | -48.48313 | 44 ft | 9 kts | 224° |
| 2026-05-04 00:12 | -1.38806 | -48.48352 | 44 ft | 7 kts | 232° |
| 2026-05-04 00:12 | -1.38815 | -48.48395 | 42 ft | 6 kts | 269° |
| 2026-05-04 00:13 | -1.38812 | -48.48434 | 43 ft | 6 kts | 277° |
| 2026-05-04 00:13 | -1.38800 | -48.48471 | 43 ft | 3 kts | 324° |
| 2026-05-04 00:13 | -1.38775 | -48.48464 | 43 ft | 7 kts | 19° |
| 2026-05-04 00:13 | -1.38716 | -48.48413 | 42 ft | 21 kts | 45° |
| 2026-05-04 00:14 | -1.38452 | -48.48148 | 43 ft | 88 kts | 45° |
| 2026-05-04 00:14 | -1.37880 | -48.47574 | 40 ft | 143 kts | 45° |
| 2026-05-04 00:14 | -1.37114 | -48.46761 | 303 ft | 167 kts | 49° |
| 2026-05-04 00:14 | -1.36337 | -48.45903 | 960 ft | 169 kts | 49° |
| 2026-05-04 00:15 | -1.35491 | -48.45099 | 1688 ft | 168 kts | 38° |
| 2026-05-04 00:15 | -1.34423 | -48.44615 | 2304 ft | 171 kts | 13° |
| 2026-05-04 00:15 | -1.33219 | -48.44713 | 2848 ft | 184 kts | 343° |
| 2026-05-04 00:15 | -1.32144 | -48.45551 | 3143 ft | 213 kts | 307° |
| 2026-05-04 00:16 | -1.31663 | -48.47029 | 3363 ft | 240 kts | 271° |
| 2026-05-04 00:16 | -1.32070 | -48.48736 | 3443 ft | 273 kts | 243° |
| 2026-05-04 00:16 | -1.33016 | -48.50509 | 3687 ft | 300 kts | 240° |
| 2026-05-04 00:16 | -1.34021 | -48.52319 | 4715 ft | 292 kts | 239° |
| 2026-05-04 00:17 | -1.34927 | -48.54127 | 5674 ft | 291 kts | 247° |
| 2026-05-04 00:17 | -1.35559 | -48.56062 | 6479 ft | 295 kts | 253° |
| 2026-05-04 00:17 | -1.36223 | -48.58000 | 7227 ft | 296 kts | 244° |
| 2026-05-04 00:17 | -1.37308 | -48.59747 | 7973 ft | 296 kts | 227° |
| 2026-05-04 00:18 | -1.38710 | -48.61262 | 8741 ft | 298 kts | 224° |
| 2026-05-04 00:18 | -1.40164 | -48.62751 | 9496 ft | 301 kts | 223° |
| 2026-05-04 00:18 | -1.41647 | -48.64239 | 10201 ft | 305 kts | 223° |
| 2026-05-04 00:18 | -1.43164 | -48.65831 | 10421 ft | 328 kts | 226° |
| 2026-05-04 00:19 | -1.44664 | -48.67640 | 10664 ft | 347 kts | 236° |
| 2026-05-04 00:19 | -1.45756 | -48.69820 | 11194 ft | 355 kts | 249° |
| 2026-05-04 00:19 | -1.46354 | -48.72192 | 11791 ft | 360 kts | 262° |
| 2026-05-04 00:19 | -1.46559 | -48.74699 | 12405 ft | 364 kts | 265° |
| 2026-05-04 00:20 | -1.46740 | -48.77231 | 13014 ft | 367 kts | 265° |
| 2026-05-04 00:20 | -1.46929 | -48.79785 | 13615 ft | 370 kts | 265° |
| 2026-05-04 00:20 | -1.47122 | -48.82366 | 14157 ft | 374 kts | 265° |
| 2026-05-04 00:20 | -1.47315 | -48.84967 | 14676 ft | 377 kts | 265° |
| 2026-05-04 00:21 | -1.47506 | -48.87586 | 15259 ft | 377 kts | 265° |
| 2026-05-04 00:21 | -1.47694 | -48.90204 | 15837 ft | 379 kts | 265° |
| 2026-05-04 00:21 | -1.47882 | -48.92836 | 16375 ft | 381 kts | 265° |
| 2026-05-04 00:21 | -1.48072 | -48.95493 | 16901 ft | 384 kts | 265° |
| 2026-05-04 00:22 | -1.48263 | -48.98164 | 17413 ft | 387 kts | 265° |
| 2026-05-04 00:22 | -1.48456 | -49.00858 | 17918 ft | 389 kts | 265° |
| 2026-05-04 00:22 | -1.48648 | -49.03566 | 18395 ft | 392 kts | 265° |
| 2026-05-04 00:22 | -1.48839 | -49.06294 | 18818 ft | 395 kts | 265° |
| 2026-05-04 00:23 | -1.49034 | -49.09041 | 19240 ft | 398 kts | 265° |
| 2026-05-04 00:23 | -1.49232 | -49.11806 | 19652 ft | 400 kts | 265° |
| 2026-05-04 00:23 | -1.49514 | -49.14549 | 20056 ft | 403 kts | 260° |
| 2026-05-04 00:23 | -1.49970 | -49.17316 | 20466 ft | 405 kts | 260° |
| 2026-05-04 00:24 | -1.50432 | -49.20101 | 20866 ft | 408 kts | 260° |
| 2026-05-04 00:24 | -1.50897 | -49.22906 | 21257 ft | 410 kts | 260° |
| 2026-05-04 00:24 | -1.51365 | -49.25724 | 21654 ft | 412 kts | 260° |
| 2026-05-04 00:24 | -1.51841 | -49.28561 | 22037 ft | 415 kts | 260° |
| 2026-05-04 00:25 | -1.52321 | -49.31412 | 22416 ft | 417 kts | 260° |
| 2026-05-04 00:25 | -1.52800 | -49.34282 | 22784 ft | 420 kts | 260° |
| 2026-05-04 00:25 | -1.53279 | -49.37171 | 23154 ft | 422 kts | 260° |
| 2026-05-04 00:25 | -1.53759 | -49.40071 | 23514 ft | 425 kts | 260° |
| 2026-05-04 00:26 | -1.54243 | -49.43001 | 23821 ft | 427 kts | 260° |
| 2026-05-04 00:26 | -1.54728 | -49.45930 | 24124 ft | 429 kts | 260° |
| 2026-05-04 00:26 | -1.55218 | -49.48882 | 24433 ft | 430 kts | 260° |
| 2026-05-04 00:26 | -1.55709 | -49.51835 | 24744 ft | 432 kts | 260° |
| 2026-05-04 00:27 | -1.56204 | -49.54803 | 25049 ft | 434 kts | 260° |
| 2026-05-04 00:27 | -1.56699 | -49.57779 | 25351 ft | 435 kts | 260° |
| 2026-05-04 00:27 | -1.57191 | -49.60735 | 25644 ft | 437 kts | 260° |
| 2026-05-04 00:27 | -1.57690 | -49.63739 | 25942 ft | 439 kts | 260° |
| 2026-05-04 00:28 | -1.58191 | -49.66751 | 26242 ft | 440 kts | 260° |
| 2026-05-04 00:28 | -1.58692 | -49.69777 | 26541 ft | 442 kts | 260° |
| 2026-05-04 00:28 | -1.59192 | -49.72810 | 26828 ft | 443 kts | 260° |
| 2026-05-04 00:28 | -1.59695 | -49.75854 | 27107 ft | 445 kts | 260° |
| 2026-05-04 00:29 | -1.60202 | -49.78913 | 27370 ft | 447 kts | 260° |
| 2026-05-04 00:29 | -1.60712 | -49.81989 | 27643 ft | 449 kts | 260° |
| 2026-05-04 00:29 | -1.61223 | -49.85078 | 27913 ft | 451 kts | 260° |
| 2026-05-04 00:29 | -1.61737 | -49.88174 | 28181 ft | 452 kts | 260° |
| 2026-05-04 00:30 | -1.62254 | -49.91283 | 28450 ft | 454 kts | 260° |
| 2026-05-04 00:30 | -1.62770 | -49.94398 | 28713 ft | 456 kts | 261° |
| 2026-05-04 00:30 | -1.63288 | -49.97528 | 28973 ft | 457 kts | 260° |
| 2026-05-04 00:30 | -1.63808 | -50.00666 | 29242 ft | 459 kts | 260° |
| 2026-05-04 00:31 | -1.64330 | -50.03818 | 29504 ft | 460 kts | 260° |
| 2026-05-04 00:31 | -1.64857 | -50.06988 | 29759 ft | 462 kts | 260° |
| 2026-05-04 00:31 | -1.65384 | -50.10159 | 30011 ft | 464 kts | 260° |
| 2026-05-04 00:31 | -1.65911 | -50.13347 | 30223 ft | 465 kts | 260° |
| 2026-05-04 00:32 | -1.66435 | -50.16537 | 30433 ft | 466 kts | 261° |
| 2026-05-04 00:32 | -1.66963 | -50.19742 | 30636 ft | 468 kts | 260° |
| 2026-05-04 00:32 | -1.67498 | -50.22955 | 30831 ft | 469 kts | 260° |
| 2026-05-04 00:32 | -1.68031 | -50.26173 | 31054 ft | 469 kts | 261° |
| 2026-05-04 00:33 | -1.68561 | -50.29392 | 31347 ft | 468 kts | 261° |
| 2026-05-04 00:33 | -1.69621 | -50.35761 | 31907 ft | 467 kts | 261° |
| 2026-05-04 00:33 | -1.70153 | -50.38955 | 32193 ft | 466 kts | 261° |
| 2026-05-04 00:34 | -1.70684 | -50.42143 | 32485 ft | 465 kts | 261° |
| 2026-05-04 00:34 | -1.71210 | -50.45329 | 32778 ft | 464 kts | 261° |
| 2026-05-04 00:34 | -1.71731 | -50.48510 | 33085 ft | 463 kts | 261° |
| 2026-05-04 00:34 | -1.72251 | -50.51682 | 33422 ft | 461 kts | 261° |
| 2026-05-04 00:35 | -1.72769 | -50.54833 | 33746 ft | 459 kts | 261° |
| 2026-05-04 00:35 | -1.73287 | -50.57981 | 33947 ft | 458 kts | 261° |
| 2026-05-04 00:35 | -1.73800 | -50.61099 | 33988 ft | 451 kts | 261° |
| 2026-05-04 00:36 | -1.74816 | -50.67267 | 33989 ft | 451 kts | 261° |
| 2026-05-04 00:36 | -1.75841 | -50.73460 | 33989 ft | 452 kts | 261° |
| 2026-05-04 00:37 | -1.76874 | -50.79653 | 33989 ft | 452 kts | 261° |
| 2026-05-04 00:37 | -1.77903 | -50.85853 | 33983 ft | 452 kts | 261° |
| 2026-05-04 00:38 | -1.78912 | -50.92019 | 33982 ft | 452 kts | 262° |
| 2026-05-04 00:38 | -1.79937 | -50.98222 | 33977 ft | 452 kts | 261° |
| 2026-05-04 00:39 | -1.80964 | -51.04429 | 33977 ft | 452 kts | 261° |
| 2026-05-04 00:39 | -1.81992 | -51.10634 | 33979 ft | 453 kts | 261° |
| 2026-05-04 00:40 | -1.83016 | -51.16838 | 33982 ft | 452 kts | 261° |
| 2026-05-04 00:40 | -1.84039 | -51.23039 | 33982 ft | 452 kts | 261° |
| 2026-05-04 00:41 | -1.85061 | -51.29240 | 33979 ft | 452 kts | 262° |
| 2026-05-04 00:41 | -1.86079 | -51.35440 | 33978 ft | 451 kts | 261° |
| 2026-05-04 00:42 | -1.87087 | -51.41582 | 33989 ft | 450 kts | 261° |
| 2026-05-04 00:42 | -1.88109 | -51.47754 | 33993 ft | 449 kts | 261° |
| 2026-05-04 00:43 | -1.89128 | -51.53912 | 33999 ft | 449 kts | 261° |
| 2026-05-04 00:43 | -1.90141 | -51.60069 | 33995 ft | 449 kts | 261° |
| 2026-05-04 00:44 | -1.91149 | -51.66224 | 33990 ft | 449 kts | 261° |
| 2026-05-04 00:44 | -1.92165 | -51.72372 | 33992 ft | 448 kts | 261° |
| 2026-05-04 00:45 | -1.93180 | -51.78522 | 33988 ft | 448 kts | 261° |
| 2026-05-04 00:45 | -1.94195 | -51.84671 | 33981 ft | 449 kts | 261° |
| 2026-05-04 00:46 | -1.95215 | -51.90831 | 33976 ft | 450 kts | 261° |
| 2026-05-04 00:46 | -1.96061 | -51.95966 | 33975 ft | 450 kts | 261° |
| 2026-05-04 00:47 | -1.97073 | -52.02144 | 33977 ft | 451 kts | 261° |
| 2026-05-04 00:47 | -1.98090 | -52.08331 | 33977 ft | 451 kts | 261° |
| 2026-05-04 00:48 | -1.99107 | -52.14517 | 33973 ft | 451 kts | 261° |
| 2026-05-04 00:48 | -2.00280 | -52.21709 | 33974 ft | 451 kts | 262° |
| 2026-05-04 00:49 | -2.01134 | -52.26897 | 33976 ft | 451 kts | 261° |
| 2026-05-04 00:49 | -2.02160 | -52.33081 | 33979 ft | 451 kts | 261° |
| 2026-05-04 00:50 | -2.03176 | -52.39263 | 33982 ft | 451 kts | 261° |
| 2026-05-04 00:50 | -2.04184 | -52.45444 | 33983 ft | 450 kts | 261° |
| 2026-05-04 00:51 | -2.05188 | -52.51584 | 33981 ft | 450 kts | 261° |
| 2026-05-04 00:51 | -2.06196 | -52.57761 | 33974 ft | 451 kts | 261° |
| 2026-05-04 00:52 | -2.07193 | -52.63949 | 33978 ft | 451 kts | 261° |
| 2026-05-04 00:52 | -2.08190 | -52.70138 | 33975 ft | 451 kts | 261° |
| 2026-05-04 00:53 | -2.09197 | -52.76325 | 33975 ft | 451 kts | 261° |
| 2026-05-04 00:53 | -2.10206 | -52.82518 | 33973 ft | 451 kts | 261° |
| 2026-05-04 00:54 | -2.11214 | -52.88712 | 33971 ft | 451 kts | 260° |
| 2026-05-04 00:54 | -2.12217 | -52.94908 | 33972 ft | 451 kts | 260° |
| 2026-05-04 00:55 | -2.13229 | -53.01105 | 33968 ft | 451 kts | 261° |
| 2026-05-04 00:55 | -2.14242 | -53.07297 | 33962 ft | 452 kts | 261° |
| 2026-05-04 00:56 | -2.15254 | -53.13498 | 33964 ft | 452 kts | 261° |
| 2026-05-04 00:56 | -2.16263 | -53.19712 | 33964 ft | 453 kts | 261° |
| 2026-05-04 00:57 | -2.17273 | -53.25925 | 33965 ft | 453 kts | 261° |
| 2026-05-04 00:57 | -2.18283 | -53.32103 | 33966 ft | 453 kts | 261° |
| 2026-05-04 00:58 | -2.19301 | -53.38327 | 33966 ft | 453 kts | 261° |
| 2026-05-04 00:58 | -2.20311 | -53.44546 | 33966 ft | 453 kts | 261° |
| 2026-05-04 00:59 | -2.21325 | -53.50777 | 33970 ft | 453 kts | 261° |
| 2026-05-04 00:59 | -2.22349 | -53.56996 | 33965 ft | 453 kts | 261° |
| 2026-05-04 01:00 | -2.23367 | -53.63224 | 33968 ft | 453 kts | 261° |
| 2026-05-04 01:00 | -2.24377 | -53.69446 | 33969 ft | 454 kts | 261° |
| 2026-05-04 01:01 | -2.25388 | -53.75676 | 33970 ft | 454 kts | 261° |
| 2026-05-04 01:01 | -2.26400 | -53.81907 | 33971 ft | 454 kts | 261° |
| 2026-05-04 01:02 | -2.27404 | -53.88096 | 33970 ft | 454 kts | 261° |
| 2026-05-04 01:02 | -2.28429 | -53.94325 | 33972 ft | 454 kts | 261° |
| 2026-05-04 01:03 | -2.29442 | -54.00557 | 33969 ft | 454 kts | 261° |
| 2026-05-04 01:03 | -2.30455 | -54.06790 | 33966 ft | 455 kts | 261° |
| 2026-05-04 01:04 | -2.31475 | -54.13032 | 33967 ft | 455 kts | 261° |
| 2026-05-04 01:04 | -2.32499 | -54.19275 | 33965 ft | 455 kts | 261° |
| 2026-05-04 01:05 | -2.33517 | -54.25530 | 33968 ft | 455 kts | 261° |
| 2026-05-04 01:05 | -2.34531 | -54.31787 | 33965 ft | 456 kts | 261° |
| 2026-05-04 01:06 | -2.35545 | -54.38055 | 33970 ft | 457 kts | 261° |
| 2026-05-04 01:06 | -2.36563 | -54.44319 | 33969 ft | 457 kts | 261° |
| 2026-05-04 01:07 | -2.37578 | -54.50548 | 33959 ft | 457 kts | 261° |
| 2026-05-04 01:07 | -2.38519 | -54.56831 | 33949 ft | 457 kts | 262° |
| 2026-05-04 01:08 | -2.39358 | -54.63132 | 33939 ft | 457 kts | 262° |
| 2026-05-04 01:08 | -2.40190 | -54.69436 | 33932 ft | 457 kts | 262° |
| 2026-05-04 01:09 | -2.41058 | -54.75745 | 33933 ft | 458 kts | 262° |
| 2026-05-04 01:09 | -2.41941 | -54.82047 | 33935 ft | 458 kts | 262° |
| 2026-05-04 01:10 | -2.42817 | -54.88362 | 33937 ft | 458 kts | 262° |
| 2026-05-04 01:10 | -2.43689 | -54.94682 | 33947 ft | 459 kts | 262° |
| 2026-05-04 01:11 | -2.44558 | -55.00997 | 33961 ft | 459 kts | 262° |
| 2026-05-04 01:11 | -2.45429 | -55.07313 | 33967 ft | 458 kts | 262° |
| 2026-05-04 01:12 | -2.46306 | -55.13627 | 33974 ft | 458 kts | 262° |
| 2026-05-04 01:12 | -2.47170 | -55.19899 | 33977 ft | 458 kts | 262° |
| 2026-05-04 01:13 | -2.48036 | -55.26202 | 33976 ft | 457 kts | 262° |
| 2026-05-04 01:13 | -2.48901 | -55.32508 | 33974 ft | 458 kts | 262° |
| 2026-05-04 01:14 | -2.49774 | -55.38820 | 33972 ft | 458 kts | 263° |
| 2026-05-04 01:14 | -2.50561 | -55.45142 | 33971 ft | 458 kts | 264° |
| 2026-05-04 01:15 | -2.51253 | -55.51485 | 33972 ft | 459 kts | 264° |
| 2026-05-04 01:15 | -2.51957 | -55.57829 | 33977 ft | 459 kts | 263° |
| 2026-05-04 01:16 | -2.52687 | -55.64171 | 33979 ft | 459 kts | 263° |
| 2026-05-04 01:16 | -2.53429 | -55.70511 | 33980 ft | 459 kts | 263° |
| 2026-05-04 01:17 | -2.54165 | -55.76859 | 33983 ft | 459 kts | 263° |
| 2026-05-04 01:17 | -2.54895 | -55.83208 | 33980 ft | 460 kts | 263° |
| 2026-05-04 01:18 | -2.55623 | -55.89557 | 33977 ft | 460 kts | 263° |
| 2026-05-04 01:18 | -2.56348 | -55.95912 | 33976 ft | 460 kts | 263° |
| 2026-05-04 01:19 | -2.57079 | -56.02265 | 33977 ft | 460 kts | 263° |
| 2026-05-04 01:19 | -2.57817 | -56.08627 | 33980 ft | 461 kts | 263° |
| 2026-05-04 01:20 | -2.58541 | -56.14948 | 33984 ft | 461 kts | 263° |
| 2026-05-04 01:20 | -2.59266 | -56.21318 | 33984 ft | 461 kts | 263° |
| 2026-05-04 01:21 | -2.59997 | -56.27695 | 33985 ft | 461 kts | 263° |
| 2026-05-04 01:21 | -2.60725 | -56.34064 | 33985 ft | 461 kts | 263° |
| 2026-05-04 01:22 | -2.61456 | -56.40440 | 33985 ft | 461 kts | 263° |
| 2026-05-04 01:22 | -2.62193 | -56.46813 | 33983 ft | 461 kts | 263° |
| 2026-05-04 01:23 | -2.62940 | -56.53189 | 33986 ft | 461 kts | 263° |
| 2026-05-04 01:23 | -2.63677 | -56.59562 | 33987 ft | 461 kts | 263° |
| 2026-05-04 01:24 | -2.64405 | -56.65884 | 33985 ft | 460 kts | 263° |
| 2026-05-04 01:24 | -2.65136 | -56.72245 | 33988 ft | 460 kts | 263° |
| 2026-05-04 01:25 | -2.65863 | -56.78609 | 33988 ft | 460 kts | 263° |
| 2026-05-04 01:25 | -2.66596 | -56.84965 | 33985 ft | 460 kts | 263° |
| 2026-05-04 01:26 | -2.67338 | -56.91321 | 33988 ft | 459 kts | 263° |
| 2026-05-04 01:26 | -2.68070 | -56.97664 | 33998 ft | 459 kts | 263° |
| 2026-05-04 01:27 | -2.68794 | -57.04003 | 33990 ft | 458 kts | 263° |
| 2026-05-04 01:27 | -2.69521 | -57.10337 | 33997 ft | 458 kts | 263° |
| 2026-05-04 01:28 | -2.70244 | -57.16670 | 33991 ft | 458 kts | 263° |
| 2026-05-04 01:28 | -2.70972 | -57.23005 | 33985 ft | 459 kts | 263° |
| 2026-05-04 01:29 | -2.71702 | -57.29348 | 33985 ft | 459 kts | 263° |
| 2026-05-04 01:29 | -2.72438 | -57.35692 | 33985 ft | 459 kts | 263° |
| 2026-05-04 01:30 | -2.73164 | -57.42038 | 33987 ft | 459 kts | 263° |
| 2026-05-04 01:30 | -2.73894 | -57.48386 | 33984 ft | 460 kts | 263° |
| 2026-05-04 01:31 | -2.74617 | -57.54699 | 33983 ft | 460 kts | 263° |
| 2026-05-04 01:31 | -2.75346 | -57.61059 | 33978 ft | 460 kts | 263° |
| 2026-05-04 01:32 | -2.76077 | -57.67417 | 33986 ft | 460 kts | 263° |
| 2026-05-04 01:32 | -2.76793 | -57.73771 | 33990 ft | 459 kts | 263° |
| 2026-05-04 01:33 | -2.77506 | -57.80117 | 33986 ft | 459 kts | 263° |
| 2026-05-04 01:33 | -2.78228 | -57.86459 | 33989 ft | 459 kts | 263° |
| 2026-05-04 01:34 | -2.78954 | -57.92795 | 33987 ft | 459 kts | 263° |
| 2026-05-04 01:34 | -2.79683 | -57.99137 | 33988 ft | 458 kts | 263° |
| 2026-05-04 01:35 | -2.80288 | -58.04402 | 33994 ft | 459 kts | 263° |
| 2026-05-04 01:35 | -2.81135 | -58.11811 | 33990 ft | 459 kts | 263° |
| 2026-05-04 01:36 | -2.81738 | -58.17082 | 33987 ft | 459 kts | 263° |
| 2026-05-04 01:36 | -2.82464 | -58.23418 | 33995 ft | 458 kts | 263° |
| 2026-05-04 01:37 | -2.83188 | -58.29748 | 33993 ft | 458 kts | 263° |
| 2026-05-04 01:37 | -2.83907 | -58.36071 | 33989 ft | 457 kts | 263° |
| 2026-05-04 01:38 | -2.84620 | -58.42395 | 33990 ft | 458 kts | 263° |
| 2026-05-04 01:38 | -2.85344 | -58.48718 | 33996 ft | 458 kts | 263° |
| 2026-05-04 01:39 | -2.85876 | -58.55062 | 33993 ft | 458 kts | 267° |
| 2026-05-04 01:39 | -2.86121 | -58.61426 | 33992 ft | 458 kts | 268° |
| 2026-05-04 01:39 | -2.86223 | -58.64610 | 33539 ft | 459 kts | 268° |
| 2026-05-04 01:40 | -2.86338 | -58.67795 | 32956 ft | 456 kts | 268° |
| 2026-05-04 01:40 | -2.86473 | -58.70953 | 32421 ft | 453 kts | 267° |
| 2026-05-04 01:40 | -2.86625 | -58.74095 | 31875 ft | 451 kts | 267° |
| 2026-05-04 01:40 | -2.86786 | -58.77219 | 31340 ft | 449 kts | 267° |
| 2026-05-04 01:41 | -2.86947 | -58.80282 | 30812 ft | 446 kts | 267° |
| 2026-05-04 01:41 | -2.87107 | -58.83379 | 30294 ft | 444 kts | 267° |
| 2026-05-04 01:41 | -2.87264 | -58.86452 | 29732 ft | 442 kts | 267° |
| 2026-05-04 01:41 | -2.87416 | -58.89512 | 29227 ft | 437 kts | 267° |
| 2026-05-04 01:42 | -2.87564 | -58.92536 | 28732 ft | 433 kts | 267° |
| 2026-05-04 01:42 | -2.87706 | -58.95526 | 28254 ft | 428 kts | 267° |
| 2026-05-04 01:42 | -2.87848 | -58.98493 | 27773 ft | 424 kts | 267° |
| 2026-05-04 01:42 | -2.87988 | -59.01428 | 27302 ft | 421 kts | 267° |
| 2026-05-04 01:43 | -2.88128 | -59.04344 | 26831 ft | 417 kts | 268° |
| 2026-05-04 01:43 | -2.88264 | -59.07235 | 26361 ft | 414 kts | 268° |
| 2026-05-04 01:43 | -2.88401 | -59.10101 | 25896 ft | 411 kts | 268° |
| 2026-05-04 01:43 | -2.88539 | -59.12952 | 25405 ft | 410 kts | 268° |
| 2026-05-04 01:44 | -2.88675 | -59.15794 | 24920 ft | 408 kts | 268° |
| 2026-05-04 01:44 | -2.88812 | -59.18625 | 24417 ft | 407 kts | 268° |
| 2026-05-04 01:44 | -2.88946 | -59.21415 | 23917 ft | 407 kts | 268° |
| 2026-05-04 01:44 | -2.89085 | -59.24246 | 23371 ft | 408 kts | 267° |
| 2026-05-04 01:45 | -2.89225 | -59.27072 | 22830 ft | 406 kts | 267° |
| 2026-05-04 01:45 | -2.89364 | -59.29888 | 22323 ft | 404 kts | 267° |
| 2026-05-04 01:45 | -2.89641 | -59.35484 | 21321 ft | 401 kts | 267° |
| 2026-05-04 01:46 | -2.89777 | -59.38269 | 20823 ft | 400 kts | 267° |
| 2026-05-04 01:46 | -2.89910 | -59.41041 | 20424 ft | 396 kts | 267° |
| 2026-05-04 01:46 | -2.90039 | -59.43796 | 19950 ft | 395 kts | 267° |
| 2026-05-04 01:46 | -2.90167 | -59.46514 | 19528 ft | 387 kts | 267° |
| 2026-05-04 01:47 | -2.90292 | -59.49191 | 18893 ft | 381 kts | 267° |
| 2026-05-04 01:47 | -2.90413 | -59.51809 | 18467 ft | 375 kts | 267° |
| 2026-05-04 01:47 | -2.90536 | -59.54412 | 17994 ft | 375 kts | 267° |
| 2026-05-04 01:47 | -2.90660 | -59.57016 | 17554 ft | 373 kts | 267° |
| 2026-05-04 01:48 | -2.90785 | -59.59597 | 17134 ft | 371 kts | 267° |
| 2026-05-04 01:48 | -2.90909 | -59.62169 | 16719 ft | 369 kts | 266° |
| 2026-05-04 01:48 | -2.91032 | -59.64729 | 16300 ft | 368 kts | 266° |
| 2026-05-04 01:48 | -2.91156 | -59.67277 | 15890 ft | 366 kts | 267° |
| 2026-05-04 01:49 | -2.91279 | -59.69818 | 15483 ft | 365 kts | 267° |
| 2026-05-04 01:49 | -2.91399 | -59.72354 | 15079 ft | 364 kts | 267° |
| 2026-05-04 01:49 | -2.91518 | -59.74855 | 14676 ft | 364 kts | 267° |
| 2026-05-04 01:49 | -2.91637 | -59.77379 | 14270 ft | 363 kts | 267° |
| 2026-05-04 01:50 | -2.91755 | -59.79929 | 13906 ft | 361 kts | 267° |
| 2026-05-04 01:50 | -2.91870 | -59.82384 | 13425 ft | 353 kts | 268° |
| 2026-05-04 01:50 | -2.91983 | -59.84799 | 13036 ft | 345 kts | 267° |
| 2026-05-04 01:50 | -2.92098 | -59.87199 | 12637 ft | 344 kts | 267° |
| 2026-05-04 01:51 | -2.92213 | -59.89586 | 12239 ft | 343 kts | 267° |
| 2026-05-04 01:51 | -2.92325 | -59.91967 | 11844 ft | 342 kts | 267° |
| 2026-05-04 01:51 | -2.92436 | -59.94340 | 11448 ft | 341 kts | 267° |
| 2026-05-04 01:51 | -2.92547 | -59.96703 | 11033 ft | 340 kts | 267° |
| 2026-05-04 01:52 | -2.92657 | -59.99060 | 10642 ft | 338 kts | 267° |
| 2026-05-04 01:52 | -2.92764 | -60.01352 | 10435 ft | 321 kts | 267° |
| 2026-05-04 01:52 | -2.92868 | -60.03558 | 9887 ft | 316 kts | 267° |
| 2026-05-04 01:52 | -2.92972 | -60.05720 | 9410 ft | 307 kts | 267° |
| 2026-05-04 01:53 | -2.93071 | -60.07816 | 9007 ft | 296 kts | 267° |
| 2026-05-04 01:53 | -2.93166 | -60.09856 | 8618 ft | 294 kts | 267° |
| 2026-05-04 01:53 | -2.93260 | -60.11897 | 8211 ft | 294 kts | 267° |
| 2026-05-04 01:53 | -2.93356 | -60.13941 | 7807 ft | 293 kts | 267° |
| 2026-05-04 01:54 | -2.93450 | -60.15947 | 7393 ft | 284 kts | 267° |
| 2026-05-04 01:54 | -2.93539 | -60.17893 | 6992 ft | 276 kts | 267° |
| 2026-05-04 01:54 | -2.93630 | -60.19779 | 6590 ft | 268 kts | 265° |
| 2026-05-04 01:54 | -2.94159 | -60.21525 | 6186 ft | 264 kts | 232° |
| 2026-05-04 01:55 | -2.95552 | -60.22643 | 5754 ft | 258 kts | 196° |
| 2026-05-04 01:55 | -2.97315 | -60.22858 | 5330 ft | 257 kts | 177° |
| 2026-05-04 01:55 | -2.99095 | -60.22862 | 4901 ft | 253 kts | 175° |
| 2026-05-04 01:55 | -3.00842 | -60.22857 | 4465 ft | 249 kts | 175° |
| 2026-05-04 01:56 | -3.02521 | -60.22638 | 4029 ft | 238 kts | 150° |
| 2026-05-04 01:56 | -3.03664 | -60.21568 | 3635 ft | 222 kts | 110° |
| 2026-05-04 01:56 | -3.03872 | -60.20101 | 3311 ft | 209 kts | 85° |
| 2026-05-04 01:56 | -3.03840 | -60.18697 | 3058 ft | 201 kts | 87° |
| 2026-05-04 01:57 | -3.03834 | -60.17343 | 2924 ft | 188 kts | 87° |
| 2026-05-04 01:57 | -3.03834 | -60.16091 | 2690 ft | 173 kts | 87° |
| 2026-05-04 01:57 | -3.03828 | -60.14934 | 2361 ft | 159 kts | 86° |
| 2026-05-04 01:57 | -3.03839 | -60.13859 | 1992 ft | 155 kts | 88° |
| 2026-05-04 01:58 | -3.03904 | -60.12823 | 1788 ft | 145 kts | 89° |
| 2026-05-04 01:58 | -3.03914 | -60.11831 | 1485 ft | 141 kts | 84° |
| 2026-05-04 01:58 | -3.03860 | -60.10851 | 1127 ft | 141 kts | 84° |
| 2026-05-04 01:58 | -3.03828 | -60.09874 | 915 ft | 141 kts | 87° |
| 2026-05-04 01:59 | -3.03836 | -60.08888 | 789 ft | 141 kts | 88° |
| 2026-05-04 01:59 | -3.03847 | -60.07907 | 624 ft | 143 kts | 90° |
| 2026-05-04 01:59 | -3.03856 | -60.06913 | 449 ft | 142 kts | 86° |
| 2026-05-04 01:59 | -3.03854 | -60.05930 | 281 ft | 138 kts | 87° |
| 2026-05-04 02:00 | -3.03855 | -60.05121 | 278 ft | 92 kts | 90° |
| 2026-05-04 02:00 | -3.03859 | -60.04650 | 279 ft | 47 kts | 91° |
| 2026-05-04 02:00 | -3.03861 | -60.04339 | 280 ft | 43 kts | 90° |
| 2026-05-04 02:00 | -3.03861 | -60.04063 | 279 ft | 37 kts | 90° |
| 2026-05-04 02:01 | -3.03865 | -60.03868 | 278 ft | 26 kts | 91° |
| 2026-05-04 02:01 | -3.03811 | -60.03779 | 278 ft | 16 kts | 27° |
| 2026-05-04 02:01 | -3.03709 | -60.03805 | 279 ft | 17 kts | 313° |
| 2026-05-04 02:01 | -3.03664 | -60.03919 | 282 ft | 19 kts | 286° |
| 2026-05-04 02:02 | -3.03621 | -60.04047 | 281 ft | 20 kts | 290° |
| 2026-05-04 02:02 | -3.03591 | -60.04186 | 282 ft | 18 kts | 291° |
| 2026-05-04 02:02 | -3.03554 | -60.04257 | 280 ft | 10 kts | 301° |
| 2026-05-04 02:02 | -3.03517 | -60.04306 | 278 ft | 8 kts | 313° |
| 2026-05-04 02:03 | -3.03469 | -60.04344 | 278 ft | 12 kts | 327° |
| 2026-05-04 02:03 | -3.03387 | -60.04377 | 278 ft | 13 kts | 340° |
| 2026-05-04 02:03 | -3.03335 | -60.04412 | 278 ft | 7 kts | 287° |
| 2026-05-04 02:03 | -3.03338 | -60.04459 | 278 ft | 8 kts | 263° |
| 2026-05-04 02:04 | -3.03345 | -60.04509 | 278 ft | 7 kts | 261° |
| 2026-05-04 02:04 | -3.03351 | -60.04550 | 278 ft | 5 kts | 261° |
| 2026-05-04 02:04 | -3.03341 | -60.04571 | 282 ft | 3 kts | 335° |
| 2026-05-04 02:04 | -3.03324 | -60.04575 | 278 ft | 2 kts | 351° |
| 2026-05-04 02:05 | -3.03303 | -60.04579 | 278 ft | 2 kts | 346° |
| 2026-05-04 02:05 | -3.03290 | -60.04580 | 278 ft | 1 kts | 355° |
| 2026-05-04 02:05 | -3.03283 | -60.04581 | 278 ft | 1 kts | 356° |
| 2026-05-04 02:05 | -3.03277 | -60.04581 | 280 ft | 1 kts | 356° |
| 2026-05-04 02:06 | -3.03272 | -60.04581 | 278 ft | 0 kts | 357° |